Terminal Aerodrome Forecast
Issued by NWS

Home | Current Version | Previous Version | Text Only | Print | Product List | Glossary On
Versions: 1 2 3 4 5 6 7 8 9 10 11 12 13
000
FTUS45 KABQ 231700
TAFGUP
TAF
KGUP 231723Z 2318/2418 25012G22KT P6SM FEW040
     FM232000 26013G23KT P6SM SCT070
     FM240200 VRB03KT P6SM FEW070
     FM241700 23008KT P6SM SKC=

USA.gov is the U.S. government's official web portal to all federal, state and local government web resources and services.